Tiempo atmosférico en la estación meteorológica de Serradilla, Cáceres (410 m.)



Fecha
DESCASC
Temp. máxima en grados centígrados (hora)
DESCASC
Temp. mínima en grados centígrados (hora)
DESCASC
Temp. media en grados centígrados
DESCASC
Racha de viento máxima en m/sg (hora)
DESCASC
Velocidad máxima media en intervalos de 10 minutos(hora)
DESCASC
Precipitaciones diarias en mm
DESCASC
Precipitaciones de 00:00 a 06:00 en mm
DESCASC
Precipitaciones de 06:00 a 12:00 en mm
DESCASC
Precipitaciones de 12:00 a 18:00 en mm
DESCASC
Precipitaciones de 18:00 a 24:00 en mm
DESCASC
17-10-2019 16.7 (23:30) 11.4 (07:30) 14.1 3.89 (22:30) 2.5 (23:30) 10.8 0 6.6 1.2 3
16-10-2019 19.8 (16:50) 8.4 (08:30) 14.1 6.94 (13:50) 4.17 (17:50) 0 0 0 0 0
15-10-2019 18 (17:00) 7.6 (06:20) 12.8 6.94 (17:20) 3.61 (15:10) 0 0 0 0 0
14-10-2019 19.1 (00:00) 11.3 (22:50) 15.2 11.11 (14:40) 6.39 (14:40) 14 0 4.4 9.2 0.4
13-10-2019 25 (18:30) 16.4 (00:00) 20.7 7.78 (17:40) 4.44 (16:40) 0 0 0 0 0
12-10-2019 30.4 (15:10) 19.3 (00:00) 24.8 11.94 (15:40) 7.22 (15:40) 0 0 0 0 0
11-10-2019 29.5 (15:30) 17.1 (00:00) 23.3 7.78 (12:20) 5.28 (10:50) 0 0 0 0 0
10-10-2019 29.4 (17:00) 14.6 (00:00) 22 10.83 (11:10) 7.5 (11:10) 0 0 0 0 0
09-10-2019 29.4 (17:10) 19.2 (00:00) 24.3 13.61 (07:30) 8.06 (07:30) 0 0 0 0 0
08-10-2019 32.8 (16:40) 17.6 (00:00) 25.2 8.61 (23:30) 5.28 (23:59) 0 0 0 0 0
07-10-2019 31.1 (15:30) 16.9 (00:00) 24 14.72 (01:20) 8.33 (01:20) 0 0 0 0 0
06-10-2019 29 (17:00) 12.9 (00:00) 20.9 10 (22:50) 6.39 (22:50) 0 0 0 0 0
05-10-2019 28.3 (18:10) 13.8 (00:00) 21 6.39 (23:10) 3.33 (17:50) 0 0 0 0 0
04-10-2019 28.8 (16:50) 13.2 (00:00) 21 11.39 (01:20) 6.94 (01:20) 0 0 0 0 0
03-10-2019 28.5 (18:00) 14.3 (00:00) 21.4 8.89 (00:40) 5.28 (00:20) 0 0 0 0 0
02-10-2019 26.2 (17:10) 14.2 (00:00) 20.2 12.78 (05:50) 7.22 (05:40) 0 0 0 0 0
01-10-2019 25.8 (16:10) 15 (00:00) 20.4 10 (16:40) 5.83 (15:10) 0 0 0 0 0
30-09-2019 31.8 (17:20) 14.7 (00:00) 23.2 9.17 (03:10) 5.28 (03:10) 0 0 0 0 0
29-09-2019 31.1 (16:40) 15 (00:00) 23.1 6.94 (17:00) 3.33 (13:40) 0 0 0 0 0
28-09-2019 30.8 (16:10) 13.6 (00:00) 22.2 10 (02:20) 5.83 (02:10) 0 0 0 0 0
27-09-2019 29.7 (16:50) 14 (00:00) 21.9 9.17 (23:20) 5.56 (23:10) 0 0 0 0 0
26-09-2019 29.5 (17:00) 13.8 (00:00) 21.7 9.17 (00:50) 5 (00:50) 0 0 0 0 0
25-09-2019 25.6 (17:30) 15.1 (00:00) 20.4 14.17 (09:00) 8.89 (08:50) 0 0 0 0 0
24-09-2019 25.4 (16:10) 13.3 (00:00) 19.3 9.72 (15:10) 5 (15:00) 0 0 0 0 0
23-09-2019 25.6 (17:30) 11.6 (00:00) 18.6 5.83 (17:40) 2.5 (12:50) 0 0 0 0 0
22-09-2019 21.8 (17:20) 12.7 (00:00) 17.2 9.72 (00:10) 5.83 (00:10) 3.8 3.8 0 0 0
21-09-2019 19.5 (00:00) 15.3 (00:00) 17.4 8.61 (23:40) 5 (23:59) 20.8 0 3.4 16 1.4
20-09-2019 27.7 (14:20) 16.4 (00:00) 22.1 11.39 (14:30) 5.83 (19:50) 0.2 0 0 0.2 0

Gráficas

Temp. máximas Temp. mínimas Temp. medias Precipitaciones Rachas de viento máximas Velocidades máximas media en intervalos de 10 minutos

Datos horarios

Fecha y hora oficial Temperatura (ºC) Velocidad del viento (km/h) Dirección del viento Racha (km/h) Dirección de racha Precipitación (mm) Presión (hPa) Tendencia (hPa) Humedad (%)
2019-10-19 23:00:00 12.3 15 Sudoeste 24 Sudoeste 0 -- -- 92
2019-10-19 22:00:00 13.5 17 Sudoeste 28 Sudoeste 0 -- -- 94
2019-10-19 21:00:00 14.2 6 Sudoeste 34 Sudoeste 1.2 -- -- 98
2019-10-19 20:00:00 14.1 8 Sur 16 Sur 5.6 -- -- 99
2019-10-19 19:00:00 14.1 5 Oeste 16 Sur 10.6 -- -- 99
2019-10-19 18:00:00 13.4 10 Este 27 Sudeste 7.6 -- -- 99
2019-10-19 17:00:00 13.9 13 Este 19 Nordeste 0 -- -- 97
2019-10-19 16:00:00 13.2 8 Este 19 Este 0.2 -- -- 98
2019-10-19 15:00:00 13 10 Sudeste 25 Sudeste 0.2 -- -- 95
2019-10-19 14:00:00 14.2 11 Sudeste 27 Sudeste 0 -- -- 83
2019-10-19 13:00:00 14.7 15 Sur 26 Sur 0 -- -- 78
2019-10-19 12:00:00 14.2 8 Sur 18 Sur 0 -- -- 80
2019-10-19 11:00:00 13.3 6 Sudeste 10 Sudeste 0 -- -- 84
2019-10-19 10:00:00 13 3 Sur 10 Sur 0 -- -- 86
2019-10-19 09:00:00 12.5 3 Sur 5 Sur 0 -- -- 85
2019-10-19 08:00:00 12.6 2 Sudeste 6 Sudoeste 0 -- -- 86
2019-10-19 07:00:00 12.3 4 Oeste 10 Sudoeste 0 -- -- 87
2019-10-19 06:00:00 13.2 4 Sudoeste 8 Sudoeste 0 -- -- 85
2019-10-19 05:00:00 13.8 6 Sudoeste 18 Sudoeste 0 -- -- 79
2019-10-19 04:00:00 13.7 4 Sudoeste 8 Sudoeste 0 -- -- 84
2019-10-19 03:00:00 13.8 5 Sudoeste 11 Sudoeste 0 -- -- 81
2019-10-19 02:00:00 13.8 3 Oeste 7 Oeste 0 -- -- 79
2019-10-19 01:00:00 13.9 2 Oeste 6 Oeste 0 -- -- 80
2019-10-19 00:00:00 13.8 3 Oeste 7 Sudoeste 0 -- -- 78
2019-10-18 23:00:00 15.3 5 Sudoeste 15 Sudoeste 0 -- -- 72
2019-10-18 22:00:00 16 10 Sudoeste 25 Oeste 0 -- -- 69
2019-10-18 21:00:00 16.7 9 Oeste 21 Sudoeste 0 -- -- 66
2019-10-18 20:00:00 17.5 9 Sudoeste 28 Sudoeste 0 -- -- 64
2019-10-18 19:00:00 19.2 17 Sudoeste 27 Sudoeste 0 -- -- 56
2019-10-18 18:00:00 19.9 14 Sudoeste 25 Sudoeste 0 -- -- 57
2019-10-18 17:00:00 20 17 Sudoeste 28 Sudoeste 0 -- -- 54
2019-10-18 16:00:00 20 16 Sudoeste 24 Sudoeste 0 -- -- 58
2019-10-18 15:00:00 20 15 Sur 24 Sudoeste 0 -- -- 68
2019-10-18 14:00:00 19.6 15 Sudoeste 29 Sudoeste 0 -- -- 75
2019-10-18 13:00:00 18.4 18 Sudoeste 27 Sudoeste 0 -- -- 82
2019-10-18 12:00:00 17.1 10 Sudoeste 23 Sudoeste 0.8 -- -- 96
2019-10-18 11:00:00 17 9 Sur 15 Sur 0.2 -- -- 99
2019-10-18 10:00:00 16.6 8 Sudoeste 15 Sur 0 -- -- 99
2019-10-18 09:00:00 16.4 6 Sudoeste 15 Sudoeste 0 -- -- 99
2019-10-18 08:00:00 16.3 8 Sudoeste 17 Sudoeste 0 -- -- 99
2019-10-18 07:00:00 16.4 11 Sudoeste 21 Sur 0.8 -- -- 99
2019-10-18 06:00:00 16.6 8 Sudoeste 20 Sudoeste 0 -- -- 98
2019-10-18 05:00:00 16.6 9 Sudoeste 19 Sudoeste 0.2 -- -- 98
2019-10-18 04:00:00 16.6 12 Sudoeste 18 Sur 0.2 -- -- 98
2019-10-18 03:00:00 16.7 9 Sur 16 Sur 0 -- -- 97
2019-10-18 02:00:00 16.8 9 Sudoeste 14 Sudoeste 0 -- -- 98
2019-10-18 01:00:00 16.9 6 Sur 14 Sur 0 -- -- 99
2019-10-18 00:00:00 16.7 4 Sur 14 Sur 0 -- -- 99
2019-10-17 23:00:00 16.5 4 Sur 14 Sur 0.6 -- -- 100
2019-10-17 22:00:00 16.4 0 Calma 6 Sudoeste 0 -- -- 100
2019-10-17 21:00:00 16 0 Calma 7 Este 1.2 -- -- 99
2019-10-17 20:00:00 16.1 3 Este 7 Este 0.8 -- -- 99
2019-10-17 19:00:00 16.1 5 Sudeste 7 Sudeste 0.4 -- -- 99
2019-10-17 18:00:00 16.1 5 Sudeste 8 Sudeste 0.4 -- -- 98
2019-10-17 17:00:00 15.6 3 Sudeste 8 Este 0.2 -- -- 99
2019-10-17 16:00:00 15.2 4 Sudeste 10 Este 0 -- -- 98
2019-10-17 15:00:00 15.1 3 Sudeste 8 Sudeste 0 -- -- 98
2019-10-17 14:00:00 14.5 4 Este 8 Este 0.2 -- -- 98
2019-10-17 13:00:00 14 4 Este 9 Este 0.4 -- -- 99
2019-10-17 12:00:00 13.5 4 Este 6 Este 0.4 -- -- 99
2019-10-17 11:00:00 12.8 0 Calma 5 Este 1 -- -- 99
2019-10-17 10:00:00 12.1 3 Nordeste 5 Este 2.2 -- -- 98
2019-10-17 09:00:00 11.7 0 Calma 4 Norte 1.4 -- -- 97
2019-10-17 08:00:00 11.4 4 Norte 6 Noroeste 0.6 -- -- 94
2019-10-17 07:00:00 11.7 5 Nordeste 8 Nordeste 1 -- -- 89
2019-10-17 06:00:00 12.3 4 Nordeste 6 Este 0 -- -- 84
2019-10-17 05:00:00 12.2 0 Calma 7 Este 0 -- -- 82
2019-10-17 04:00:00 12.8 0 Calma 4 Este 0 -- -- 78
2019-10-17 03:00:00 13 0 Calma -- -- 0 -- -- 76
2019-10-17 02:00:00 13.6 0 Calma 2 Este 0 -- -- 73
2019-10-17 01:00:00 13.9 -- -- -- -- 0 -- -- 71
2019-10-17 00:00:00 14.3 0 Calma 5 Sudoeste 0 -- -- 70
2019-10-16 23:00:00 15.7 4 Sudoeste 8 Sudoeste 0 -- -- 66
2019-10-16 22:00:00 16.3 2 Sudoeste 8 Oeste 0 -- -- 61
2019-10-16 21:00:00 16 0 Calma 6 Sudoeste 0 -- -- 64
2019-10-16 20:00:00 17.1 5 Sudoeste 16 Sudoeste 0 -- -- 56
2019-10-16 19:00:00 18.3 14 Sudoeste 23 Sur 0 -- -- 50
2019-10-16 18:00:00 19.3 12 Oeste 24 Sudoeste 0 -- -- 46
2019-10-16 17:00:00 19.8 10 Sur 21 Sudoeste 0 -- -- 45
2019-10-16 16:00:00 19.4 9 Sudoeste 23 Sudoeste 0 -- -- 49
2019-10-16 15:00:00 18.5 10 Sudoeste 19 Sudoeste 0 -- -- 52
2019-10-16 14:00:00 18 11 Sur 25 Sudoeste 0 -- -- 54
2019-10-16 13:00:00 16.5 10 Sudoeste 17 Sudoeste 0 -- -- 62
2019-10-16 12:00:00 15 5 Sur 10 Sudoeste 0 -- -- 69
2019-10-16 11:00:00 13 0 Calma 8 Este 0 -- -- 74
2019-10-16 10:00:00 10.9 3 Este 6 Este 0 -- -- 83
2019-10-16 09:00:00 8.7 4 Nordeste 5 Nordeste 0 -- -- 91
2019-10-16 08:00:00 8.5 3 Nordeste 4 Nordeste 0 -- -- 92
2019-10-16 07:00:00 8.8 0 Calma 4 Oeste 0 -- -- 90
2019-10-16 06:00:00 10.2 0 Calma 9 Oeste 0 -- -- 82
2019-10-16 05:00:00 10.1 4 Oeste 6 Oeste 0 -- -- 83
2019-10-16 04:00:00 10.7 0 Calma 5 Sudeste 0 -- -- 83
2019-10-16 03:00:00 11.4 2 Noroeste 4 Oeste 0 -- -- 77
2019-10-16 02:00:00 11.1 0 Calma 4 Norte 0 -- -- 77
2019-10-16 01:00:00 12.2 2 Sudoeste 4 Oeste 0 -- -- 74
2019-10-16 00:00:00 12.8 2 Oeste 5 Sudoeste 0 -- -- 68
2019-10-15 23:00:00 13.5 4 Oeste 7 Sudoeste 0 -- -- 63
2019-10-15 22:00:00 13.8 5 Oeste 6 Noroeste 0 -- -- 62
2019-10-15 21:00:00 13.9 4 Oeste 6 Oeste 0 -- -- 61
2019-10-15 20:00:00 15.3 4 Oeste 15 Sudoeste 0 -- -- 57
2019-10-15 19:00:00 16.9 5 Oeste 15 Noroeste 0 -- -- 52
2019-10-15 18:00:00 17.4 7 Noroeste 25 Oeste 0 -- -- 47
2019-10-15 17:00:00 18 12 Oeste 24 Sudoeste 0 -- -- 47
2019-10-15 16:00:00 17.6 12 Sudoeste 23 Sudoeste 0 -- -- 47
2019-10-15 15:00:00 17.6 11 Sudoeste 21 Sudoeste 0 -- -- 50
2019-10-15 14:00:00 16.3 6 Oeste 17 Oeste 0 -- -- 51
2019-10-15 13:00:00 15 8 Noroeste 15 Norte 0 -- -- 55
2019-10-15 12:00:00 14.2 5 Noroeste 14 Oeste 0 -- -- 58
2019-10-15 11:00:00 12.9 5 Oeste 12 Oeste 0 -- -- 71
2019-10-15 10:00:00 10.2 4 Sudoeste 8 Sudoeste 0 -- -- 79
2019-10-15 09:00:00 7.8 4 Oeste 11 Oeste 0 -- -- 88
2019-10-15 08:00:00 8 6 Sudoeste 11 Oeste 0 -- -- 86
2019-10-15 07:00:00 7.8 3 Sudoeste 9 Sudoeste 0 -- -- 86
2019-10-15 06:00:00 7.7 2 Noroeste 9 Oeste 0 -- -- 87
2019-10-15 05:00:00 8.8 6 Oeste 10 Oeste 0 -- -- 79
2019-10-15 04:00:00 9.3 7 Sudoeste 10 Sudoeste 0 -- -- 76
2019-10-15 03:00:00 9.6 4 Sur 17 Oeste 0 -- -- 78
2019-10-15 02:00:00 10.4 7 Oeste 18 Oeste 0 -- -- 70
2019-10-15 01:00:00 10.6 8 Oeste 25 Oeste 0 -- -- 71
2019-10-15 00:00:00 11.8 9 Oeste 25 Oeste 0 -- -- 61
2019-10-14 23:00:00 11.3 6 Oeste 19 Oeste 0 -- -- 74
2019-10-14 22:00:00 11.7 5 Oeste 24 Oeste 0 -- -- 75
2019-10-14 21:00:00 12.6 11 Oeste 24 Oeste 0 -- -- 74
2019-10-14 20:00:00 12.9 0 Calma 14 Sudoeste 0 -- -- 92
2019-10-14 19:00:00 14 7 Sudoeste 23 Sudoeste 0.4 -- -- 88
2019-10-14 18:00:00 13.7 5 Oeste 21 Sudoeste 1 -- -- 92
2019-10-14 17:00:00 13.3 12 Sudoeste 29 Sudoeste 0.6 -- -- 89
2019-10-14 16:00:00 13.3 11 Sudoeste 32 Sudoeste 2.4 -- -- 96
2019-10-14 15:00:00 13.1 16 Sudoeste 40 Sudoeste 5.2 -- -- 94
2019-10-14 14:00:00 16.3 21 Sudoeste 31 Sudoeste 0 -- -- 67
2019-10-14 13:00:00 16.3 18 Sudoeste 29 Sudoeste 0 -- -- 67
2019-10-14 12:00:00 16.2 18 Sudoeste 30 Sur 0 -- -- 68
2019-10-14 11:00:00 14.3 16 Sudoeste 31 Sudoeste 0 -- -- 80
2019-10-14 10:00:00 13.9 16 Sudoeste 27 Sudoeste 0 -- -- 88
2019-10-14 09:00:00 13 14 Sudoeste 32 Sudoeste 1 -- -- 94
2019-10-14 08:00:00 14.6 19 Sudoeste 30 Sudoeste 3 -- -- 89
2019-10-14 07:00:00 15.6 15 Sur 32 Sur -- -- -- 86
2019-10-14 06:00:00 15.3 6 Sur 10 Sur 0 -- -- 78
2019-10-14 05:00:00 15.7 5 Sudoeste 12 Sudoeste 0 -- -- 75
2019-10-14 04:00:00 16.8 6 Oeste 16 Oeste 0 -- -- 67
2019-10-14 03:00:00 17.4 5 Sudeste 8 Sur 0 -- -- 61
2019-10-14 02:00:00 17.4 3 Norte 8 Este 0 -- -- 62
2019-10-14 01:00:00 18.1 3 Norte 9 Este 0 -- -- 60
2019-10-14 00:00:00 19.1 6 Este 9 Este 0 -- -- 56
2019-10-13 23:00:00 19.9 5 Este 9 Este 0 -- -- 54
2019-10-13 22:00:00 20.6 5 Nordeste 7 Este 0 -- -- 50
2019-10-13 21:00:00 20.6 0 Calma 6 Sudoeste 0 -- -- 48
2019-10-13 20:00:00 22.5 4 Sur 21 Sur 0 -- -- 43
2019-10-13 19:00:00 24.7 9 Sur 25 Sur 0 -- -- 39
2019-10-13 18:00:00 24.8 8 Sur 28 Sudeste 0 -- -- 40
2019-10-13 17:00:00 24.5 13 Sur 26 Sudeste 0 -- -- 42
2019-10-13 16:00:00 23.8 12 Sur 23 Sur 0 -- -- 44
2019-10-13 15:00:00 22.9 10 Sur 24 Sur 0 -- -- 47
2019-10-13 14:00:00 21.7 10 Sur 25 Sur 0 -- -- 53
2019-10-13 13:00:00 20.7 12 Sur 24 Sur 0 -- -- 57
2019-10-13 12:00:00 18.7 10 Sur 20 Sur 0 -- -- 65
2019-10-13 11:00:00 17.5 10 Sudeste 16 Sudeste 0 -- -- 69
2019-10-13 10:00:00 16.8 7 Sur 15 Sur 0 -- -- 76
2019-10-13 09:00:00 16.4 8 Sur 15 Sur 0 -- -- 73
2019-10-13 08:00:00 16.7 9 Sur 14 Sur 0 -- -- 69
2019-10-13 07:00:00 16.6 5 Sur 14 Sudoeste 0 -- -- 69
2019-10-13 06:00:00 16.7 5 Sudoeste 9 Sur 0 -- -- 70
2019-10-13 05:00:00 17.2 0 Calma 8 Sudoeste 0 -- -- 73
2019-10-13 04:00:00 17.3 4 Sudoeste 8 Sudoeste 0 -- -- 71
2019-10-13 03:00:00 16.8 3 Oeste 9 Sudoeste 0 -- -- 76
2019-10-13 02:00:00 17.3 5 Oeste 14 Sudoeste 0 -- -- 76
2019-10-13 01:00:00 18.6 5 Oeste 19 Sudoeste 0 -- -- 73
2019-10-13 00:00:00 20.2 13 Sudoeste 25 Sudoeste 0 -- -- 70
2019-10-12 23:00:00 22.7 12 Sudoeste 22 Sudoeste 0 -- -- 53
2019-10-12 22:00:00 24 15 Sudoeste 30 Sudoeste 0 -- -- 44
2019-10-12 21:00:00 25.2 14 Sudoeste 34 Sudoeste 0 -- -- 41
2019-10-12 20:00:00 27.3 18 Sudoeste 38 Sur 0 -- -- 36
2019-10-12 19:00:00 28.9 16 Sur 35 Sudoeste 0 -- -- 29
2019-10-12 18:00:00 29.2 15 Sur 41 Sudeste 0 -- -- 28
2019-10-12 17:00:00 29.5 18 Sur 37 Sur 0 -- -- 25
2019-10-12 16:00:00 29.7 21 Sur 43 Sur 0 -- -- 28
2019-10-12 15:00:00 30.2 17 Sudeste 30 Sudeste 0 -- -- 29
2019-10-12 14:00:00 27.1 10 Este 19 Este 0 -- -- 38
2019-10-12 13:00:00 26.3 8 Este 21 Este 0 -- -- 38
2019-10-12 12:00:00 23.9 9 Este 17 Este 0 -- -- 45
2019-10-12 11:00:00 20.3 4 Nordeste 10 Nordeste 0 -- -- 64
2019-10-12 10:00:00 19.7 5 Este 8 Nordeste 0 -- -- 67
2019-10-12 09:00:00 19.6 4 Nordeste 11 Sudoeste 0 -- -- 61
2019-10-12 08:00:00 20 4 Este 13 Nordeste 0 -- -- 59
2019-10-12 07:00:00 19.3 5 Nordeste 8 Nordeste 0 -- -- 61
2019-10-12 06:00:00 19.8 3 Nordeste 8 Nordeste 0 -- -- 58
2019-10-12 05:00:00 20 3 Nordeste 13 Este 0 -- -- 58
2019-10-12 04:00:00 20.8 4 Nordeste 7 Este 0 -- -- 58
2019-10-12 03:00:00 21.6 2 Oeste 5 Oeste 0 -- -- 56
2019-10-12 02:00:00 21.8 3 Oeste 14 Sudoeste 0 -- -- 52
2019-10-12 01:00:00 22.6 9 Sudoeste 13 Sudoeste 0 -- -- 48
2019-10-12 00:00:00 23.7 4 Oeste 10 Oeste 0 -- -- 44
2019-10-11 23:00:00 24.4 3 Oeste 19 Sudoeste 0 -- -- 41
2019-10-11 22:00:00 25.2 6 Sudoeste 20 Sudoeste 0 -- -- 39
2019-10-11 21:00:00 25.2 4 Sudoeste 11 Sudoeste 0 -- -- 41
2019-10-11 20:00:00 26.1 5 Sudoeste 17 Sudoeste 0 -- -- 39
2019-10-11 19:00:00 27.7 8 Sudoeste 16 Sudeste 0 -- -- 36
2019-10-11 18:00:00 28.3 8 Sur 18 Sur 0 -- -- 36
2019-10-11 17:00:00 28.4 11 Sur 27 Sur 0 -- -- 38
2019-10-11 16:00:00 28.4 15 Sur 28 Este 0 -- -- 37
2019-10-11 15:00:00 27.8 13 Este 27 Este 0 -- -- 42
2019-10-11 14:00:00 26.9 12 Este 27 Nordeste 0 -- -- 45
2019-10-11 13:00:00 24.8 18 Nordeste 28 Nordeste 0 -- -- 52
2019-10-11 12:00:00 22.8 13 Nordeste 25 Nordeste 0 -- -- 59
2019-10-11 11:00:00 20.6 18 Nordeste 28 Nordeste 0 -- -- 66
2019-10-11 10:00:00 18.7 16 Nordeste 23 Nordeste 0 -- -- 71
2019-10-11 09:00:00 17.4 12 Nordeste 18 Nordeste 0 -- -- 71
2019-10-11 08:00:00 17.4 11 Nordeste 23 Nordeste 0 -- -- 69
2019-10-11 07:00:00 18.5 14 Nordeste 21 Nordeste 0 -- -- 63
2019-10-11 06:00:00 19.4 12 Este 21 Nordeste 0 -- -- 59
2019-10-11 05:00:00 19.9 16 Este 26 Nordeste 0 -- -- 55
2019-10-11 04:00:00 19.5 14 Nordeste 22 Este 0 -- -- 53
2019-10-11 03:00:00 20.6 13 Nordeste 18 Nordeste 0 -- -- 49
2019-10-11 02:00:00 20.4 8 Nordeste 13 Nordeste 0 -- -- 51
2019-10-11 01:00:00 21.3 10 Nordeste 12 Nordeste 0 -- -- 48
2019-10-11 00:00:00 21.9 6 Este 12 Nordeste 0 -- -- 47
2019-10-10 23:00:00 22.8 8 Nordeste 14 Nordeste 0 -- -- 44
2019-10-10 22:00:00 23.9 9 Nordeste 17 Nordeste 0 -- -- 42
2019-10-10 21:00:00 23.9 8 Nordeste 12 Nordeste 0 -- -- 42
2019-10-10 20:00:00 25.4 9 Nordeste 13 Nordeste 0 -- -- 39
2019-10-10 19:00:00 28 7 Nordeste 12 Nordeste 0 -- -- 34
2019-10-10 18:00:00 28.9 5 Este 17 Este 0 -- -- 32
2019-10-10 17:00:00 29.4 5 Este 18 Nordeste 0 -- -- 31
2019-10-10 16:00:00 28.3 11 Nordeste 23 Nordeste 0 -- -- 33
2019-10-10 15:00:00 27.3 15 Nordeste 28 Este 0 -- -- 37
2019-10-10 14:00:00 25.9 19 Este 32 Este 0 -- -- 41
2019-10-10 13:00:00 24.1 21 Nordeste 32 Este 0 -- -- 52
2019-10-10 12:00:00 21.8 21 Nordeste 39 Nordeste 0 -- -- 54
2019-10-10 11:00:00 19.6 26 Nordeste 38 Nordeste 0 -- -- 57
2019-10-10 10:00:00 17.6 22 Nordeste 35 Nordeste 0 -- -- 58
2019-10-10 09:00:00 15.7 17 Nordeste 29 Nordeste 0 -- -- 60
2019-10-10 08:00:00 15.6 18 Nordeste 29 Nordeste 0 -- -- 58
2019-10-10 07:00:00 16.5 16 Nordeste 24 Nordeste 0 -- -- 51
2019-10-10 06:00:00 16.7 14 Nordeste 19 Nordeste 0 -- -- 49
2019-10-10 05:00:00 16.4 5 Nordeste 14 Este 0 -- -- 46
2019-10-10 04:00:00 17.4 8 Este 22 Norte 0 -- -- 41
2019-10-10 03:00:00 19.8 10 Noroeste 31 Noroeste 0 -- -- 36
2019-10-10 02:00:00 20.5 5 Sudeste 34 Noroeste 0 -- -- 33
2019-10-10 01:00:00 20.9 22 Norte 39 Noroeste 0 -- -- 32
2019-10-10 00:00:00 21.6 22 Noroeste 41 Noroeste 0 -- -- 31
2019-10-09 23:00:00 22.1 24 Norte 41 Noroeste 0 -- -- 35
2019-10-09 22:00:00 23.4 23 Noroeste 36 Noroeste 0 -- -- 35
2019-10-09 21:00:00 24.6 16 Noroeste 31 Norte 0 -- -- 34
2019-10-09 20:00:00 25.6 8 Oeste 19 Oeste 0 -- -- 25
2019-10-09 19:00:00 28.5 8 Oeste 23 Oeste 0 -- -- 21
2019-10-09 18:00:00 29.2 9 Oeste 22 Oeste 0 -- -- 21
2019-10-09 17:00:00 29.1 10 Noroeste 20 Noroeste 0 -- -- 23
2019-10-09 16:00:00 29 12 Noroeste 23 Noroeste 0 -- -- 22
2019-10-09 15:00:00 28.5 10 Noroeste 23 Noroeste 0 -- -- 26
2019-10-09 14:00:00 27.8 10 Noroeste 18 Noroeste 0 -- -- 31
2019-10-09 13:00:00 25.1 15 Noroeste 37 Noroeste 0 -- -- 45
2019-10-09 12:00:00 23.2 21 Noroeste 40 Norte 0 -- -- 50
2019-10-09 11:00:00 21.2 24 Noroeste 44 Noroeste 0 -- -- 62
2019-10-09 10:00:00 20.3 19 Noroeste 41 Noroeste 0 -- -- 65
2019-10-09 09:00:00 19.2 24 Noroeste 44 Noroeste 0 -- -- 71
2019-10-09 08:00:00 19.4 24 Noroeste 49 Norte 0 -- -- 70
2019-10-09 07:00:00 20.1 22 Noroeste 40 Norte 0 -- -- 68
2019-10-09 06:00:00 21.1 15 Noroeste 35 Noroeste 0 -- -- 64
2019-10-09 05:00:00 21.8 16 Norte 37 Norte 0 -- -- 61
2019-10-09 04:00:00 22.5 21 Noroeste 41 Norte 0 -- -- 58
2019-10-09 03:00:00 23.1 21 Noroeste 35 Noroeste 0 -- -- 55
2019-10-09 02:00:00 23.7 2 Sudoeste 19 Norte 0 -- -- 49
2019-10-09 01:00:00 25.3 11 Norte 31 Norte 0 -- -- 43
2019-10-09 00:00:00 25.9 19 Noroeste 31 Noroeste 0 -- -- 43
2019-10-08 23:00:00 26.3 17 Noroeste 30 Noroeste 0 -- -- 40
2019-10-08 22:00:00 26.9 8 Noroeste 12 Noroeste 0 -- -- 32
2019-10-08 21:00:00 27.2 9 Noroeste 12 Noroeste 0 -- -- 33
2019-10-08 20:00:00 28.5 3 Oeste 18 Noroeste 0 -- -- 31
2019-10-08 19:00:00 31.2 12 Noroeste 18 Noroeste 0 -- -- 27
2019-10-08 18:00:00 32.5 5 Sudoeste 14 Noroeste 0 -- -- 23
2019-10-08 17:00:00 32.8 6 Sur 14 Sudoeste 0 -- -- 23
2019-10-08 16:00:00 32.1 6 Sur 15 Sudoeste 0 -- -- 24
2019-10-08 15:00:00 30.9 6 Este 13 Este 0 -- -- 26
2019-10-08 14:00:00 29.1 6 Este 20 Este 0 -- -- 28
2019-10-08 13:00:00 27 14 Nordeste 24 Nordeste 0 -- -- 33
2019-10-08 12:00:00 25.1 18 Nordeste 26 Este 0 -- -- 35
2019-10-08 11:00:00 -- -- -- -- -- -- -- -- --
2019-10-08 10:00:00 -- -- -- -- -- -- -- -- --
2019-10-08 09:00:00 -- -- -- -- -- -- -- -- --
2019-10-08 08:00:00 -- -- -- -- -- -- -- -- --
2019-10-08 07:00:00 -- -- -- -- -- -- -- -- --
2019-10-08 06:00:00 -- -- -- -- -- -- -- -- --
2019-10-08 05:00:00 -- -- -- -- -- -- -- -- --
2019-10-08 04:00:00 20.1 9 Nordeste 12 Nordeste 0 -- -- 45
2019-10-08 03:00:00 19.8 5 Nordeste 10 Norte 0 -- -- 44
2019-10-08 02:00:00 23.8 7 Norte 19 Norte 0 -- -- 35
2019-10-08 01:00:00 22.2 7 Sudeste 24 Noroeste 0 -- -- 37
2019-10-08 00:00:00 25 7 Norte 17 Norte 0 -- -- 32
2019-10-07 23:00:00 25.1 3 Sudoeste 8 Norte 0 -- -- 30
2019-10-07 22:00:00 25.1 5 Sudeste 10 Oeste 0 -- -- 30
2019-10-07 21:00:00 26.8 8 Noroeste 13 Noroeste 0 -- -- 26
2019-10-07 20:00:00 27.3 7 Oeste 13 Noroeste 0 -- -- 28
2019-10-07 19:00:00 29 5 Sudoeste 14 Noroeste 0 -- -- 25
2019-10-07 18:00:00 30.5 6 Oeste 14 Noroeste 0 -- -- 25
2019-10-07 17:00:00 30.3 8 Norte 12 Norte 0 -- -- 26
2019-10-07 16:00:00 30.8 7 Norte 19 Norte 0 -- -- 25
2019-10-07 15:00:00 30.4 6 Sudeste 15 Sur 0 -- -- 26
2019-10-07 14:00:00 28.7 3 Sudoeste 12 Nordeste 0 -- -- 29
2019-10-07 13:00:00 26.5 6 Este 18 Nordeste 0 -- -- 32
2019-10-07 12:00:00 24.5 9 Este 15 Este 0 -- -- 35
2019-10-07 11:00:00 23 7 Nordeste 10 Nordeste 0 -- -- 39
2019-10-07 10:00:00 21.3 3 Nordeste 5 Nordeste 0 -- -- 41
2019-10-07 09:00:00 17.8 2 Sudeste 8 Este 0 -- -- 50
2019-10-07 08:00:00 18.1 7 Sudeste 22 Noroeste 0 -- -- 46
2019-10-07 07:00:00 20.5 14 Norte 34 Noroeste 0 -- -- 44
2019-10-07 06:00:00 20.9 17 Norte 31 Norte 0 -- -- 42
2019-10-07 05:00:00 21 14 Noroeste 24 Noroeste 0 -- -- 39
2019-10-07 04:00:00 21.4 11 Norte 30 Norte 0 -- -- 38
2019-10-07 03:00:00 22.5 16 Norte 42 Norte 0 -- -- 37
2019-10-07 02:00:00 23.5 24 Norte 53 Norte 0 -- -- 33
2019-10-07 01:00:00 23.9 28 Norte 46 Noroeste 0 -- -- 30
2019-10-07 00:00:00 23.9 19 Norte 35 Norte 0 -- -- 33
2019-10-06 23:00:00 24.2 23 Norte 36 Norte 0 -- -- 32
2019-10-06 22:00:00 24.7 14 Noroeste 30 Norte 0 -- -- 31
2019-10-06 21:00:00 25.3 10 Noroeste 23 Noroeste 0 -- -- 29
2019-10-06 20:00:00 26.2 6 Oeste 17 Oeste 0 -- -- 30
2019-10-06 19:00:00 28.5 5 Oeste 17 Oeste 0 -- -- 28
2019-10-06 18:00:00 28.9 10 Noroeste 21 Noroeste 0 -- -- 28
2019-10-06 17:00:00 29 9 Noroeste 21 Noroeste 0 -- -- 29
2019-10-06 16:00:00 28.1 10 Noroeste 18 Noroeste 0 -- -- 28
2019-10-06 15:00:00 27.3 9 Noroeste 22 Noroeste 0 -- -- 28
2019-10-06 14:00:00 26.7 10 Norte 19 Noroeste 0 -- -- 28
2019-10-06 13:00:00 24.9 4 Sudeste 9 Este -- -- -- 40
2019-10-06 12:00:00 22.3 4 Sudeste 10 Este 0 -- -- 46
2019-10-06 11:00:00 18.3 5 Este 10 Nordeste 0 -- -- 56
2019-10-06 10:00:00 14.5 6 Nordeste 12 Este 0 -- -- 68
2019-10-06 09:00:00 14.8 0 Calma 10 Este 0 -- -- 65
2019-10-06 08:00:00 13.4 3 Este 8 Este 0 -- -- 69
2019-10-06 07:00:00 17.1 2 Oeste 12 Sudoeste 0 -- -- 56
2019-10-06 06:00:00 18.3 3 Sudeste 11 Oeste 0 -- -- 49
2019-10-06 05:00:00 19 5 Nordeste 14 Este 0 -- -- 48
2019-10-06 04:00:00 17.4 4 Nordeste 19 Sudoeste 0 -- -- 55
2019-10-06 03:00:00 19.7 6 Sudoeste 15 Oeste 0 -- -- 40
2019-10-06 02:00:00 20.9 6 Oeste 28 Noroeste 0 -- -- 41
2019-10-06 01:00:00 21.7 18 Noroeste 27 Noroeste 0 -- -- 38
2019-10-06 00:00:00 20.7 5 Oeste 23 Sudoeste 0 -- -- 51
2019-10-05 23:00:00 21.8 3 Oeste 12 Oeste 0 -- -- 47
2019-10-05 22:00:00 22.3 5 Oeste 10 Oeste 0 -- -- 48
2019-10-05 21:00:00 23.2 5 Oeste 10 Oeste 0 -- -- 46
2019-10-05 20:00:00 25.3 3 Oeste 13 Oeste 0 -- -- 40
2019-10-05 19:00:00 27.5 8 Oeste 17 Sudoeste 0 -- -- 31
2019-10-05 18:00:00 28.1 9 Sudoeste 22 Sudoeste 0 -- -- 37
2019-10-05 17:00:00 28.1 10 Sur 18 Sudoeste 0 -- -- 37
2019-10-05 16:00:00 27.6 6 Oeste 18 Oeste 0 -- -- 40
2019-10-05 15:00:00 26.2 8 Oeste 20 Sudoeste 0 -- -- 44
2019-10-05 14:00:00 25.1 10 Sudoeste 19 Sudoeste 0 -- -- 48
2019-10-05 13:00:00 23 7 Sudoeste 16 Sudoeste 0 -- -- 54
2019-10-05 12:00:00 21.2 4 Sur 9 Sudoeste 0 -- -- 60
2019-10-05 11:00:00 18.5 3 Sudoeste 7 Sur 0 -- -- 70
2019-10-05 10:00:00 16.5 3 Sudoeste 7 Oeste 0 -- -- 79
2019-10-05 09:00:00 14.3 4 Oeste 6 Oeste 0 -- -- 85
2019-10-05 08:00:00 14 4 Oeste 5 Oeste 0 -- -- 85
2019-10-05 07:00:00 14.3 0 Calma 6 Nordeste 0 -- -- 83
2019-10-05 06:00:00 13.8 4 Nordeste 10 Este 0 -- -- 84
2019-10-05 05:00:00 15 6 Este 7 Nordeste 0 -- -- 81
2019-10-05 04:00:00 16 2 Sudeste 8 Sudoeste 0 -- -- 79
2019-10-05 03:00:00 17 8 Sudoeste 14 Sudoeste 0 -- -- 75
2019-10-05 02:00:00 18 8 Sudoeste 12 Sudoeste 0 -- -- 70
2019-10-05 01:00:00 18.6 8 Sudoeste 15 Sudoeste 0 -- -- 65
2019-10-05 00:00:00 20 9 Sudoeste 21 Sudoeste 0 -- -- 57
2019-10-04 23:00:00 22.1 5 Oeste 8 Oeste 0 -- -- 48
2019-10-04 22:00:00 23 5 Oeste 9 Oeste 0 -- -- 44
2019-10-04 21:00:00 23.4 4 Oeste 10 Sudoeste 0 -- -- 43
2019-10-04 20:00:00 25.7 8 Sudoeste 15 Sudoeste 0 -- -- 39
2019-10-04 19:00:00 27.7 6 Oeste 14 Noroeste 0 -- -- 31
2019-10-04 18:00:00 28.4 7 Oeste 16 Oeste 0 -- -- 31
2019-10-04 17:00:00 28.6 8 Oeste 18 Oeste 0 -- -- 33
2019-10-04 16:00:00 28.4 6 Oeste 17 Sur 0 -- -- 34
2019-10-04 15:00:00 27.4 6 Sudoeste 14 Sur 0 -- -- 35
2019-10-04 14:00:00 25.3 4 Nordeste 12 Este 0 -- -- 43
2019-10-04 13:00:00 23.6 6 Este 10 Este 0 -- -- 47
2019-10-04 12:00:00 21.4 3 Norte 10 Nordeste 0 -- -- 54
2019-10-04 11:00:00 19.5 3 Este 9 Este 0 -- -- 61
2019-10-04 10:00:00 16.4 3 Nordeste 5 Norte 0 -- -- 71
2019-10-04 09:00:00 13.4 0 Calma 10 Este 0 -- -- 77
2019-10-04 08:00:00 13.7 5 Nordeste 9 Este 0 -- -- 73
2019-10-04 07:00:00 14.5 6 Este 9 Este 0 -- -- 67
2019-10-04 06:00:00 15.1 6 Este 9 Este 0 -- -- 63
2019-10-04 05:00:00 15.4 7 Nordeste 10 Nordeste 0 -- -- 62
2019-10-04 04:00:00 19.8 6 Este 22 Norte 0 -- -- 52
2019-10-04 03:00:00 20.8 15 Norte 39 Noroeste 0 -- -- 53
2019-10-04 02:00:00 20.8 22 Norte 41 Norte 0 -- -- 52
2019-10-04 01:00:00 21.3 22 Noroeste 34 Noroeste 0 -- -- 49
2019-10-04 00:00:00 20.5 7 Oeste 14 Sudoeste 0 -- -- 39
2019-10-03 23:00:00 22.8 10 Sudoeste 15 Sudoeste 0 -- -- 32
2019-10-03 22:00:00 22.8 7 Oeste 13 Oeste 0 -- -- 31
2019-10-03 21:00:00 23.2 5 Oeste 10 Oeste 0 -- -- 33
2019-10-03 20:00:00 26.1 8 Sudoeste 22 Noroeste 0 -- -- 29
2019-10-03 19:00:00 27.9 10 Oeste 23 Oeste 0 -- -- 27
2019-10-03 18:00:00 28.5 10 Oeste 23 Oeste 0 -- -- 26
2019-10-03 17:00:00 27.6 12 Oeste 26 Noroeste 0 -- -- 28
2019-10-03 16:00:00 27.3 14 Noroeste 28 Oeste 0 -- -- 26
2019-10-03 15:00:00 26.8 8 Noroeste 22 Sudoeste 0 -- -- 25
2019-10-03 14:00:00 25.8 10 Oeste 21 Oeste 0 -- -- 29
2019-10-03 13:00:00 24.5 4 Noroeste 15 Noroeste 0 -- -- 32
2019-10-03 12:00:00 22.4 6 Noroeste 11 Noroeste 0 -- -- 36
2019-10-03 11:00:00 20.2 3 Sur 6 Sudoeste 0 -- -- 45
2019-10-03 10:00:00 16.6 0 Calma 9 Sudoeste 0 -- -- 53
2019-10-03 09:00:00 14.4 7 Sudoeste 9 Oeste 0 -- -- 57
2019-10-03 08:00:00 15.6 3 Este 13 Norte 0 -- -- 52
2019-10-03 07:00:00 17.1 6 Norte 15 Norte 0 -- -- 46
2019-10-03 06:00:00 17 7 Nordeste 15 Norte 0 -- -- 47
2019-10-03 05:00:00 17.7 8 Nordeste 21 Norte 0 -- -- 45
2019-10-03 04:00:00 17.1 3 Nordeste 14 Nordeste 0 -- -- 47
2019-10-03 03:00:00 18.2 6 Nordeste 19 Noroeste 0 -- -- 44
2019-10-03 02:00:00 18.9 10 Norte 24 Noroeste 0 -- -- 41
2019-10-03 01:00:00 19.3 12 Norte 32 Noroeste 0 -- -- 41
2019-10-03 00:00:00 20 17 Norte 33 Norte 0 -- -- 39
2019-10-02 23:00:00 20.9 18 Noroeste 30 Norte 0 -- -- 37
2019-10-02 22:00:00 21.1 11 Noroeste 25 Noroeste 0 -- -- 38
2019-10-02 21:00:00 22 11 Noroeste 25 Noroeste 0 -- -- 37
2019-10-02 20:00:00 23.5 17 Noroeste 27 Noroeste 0 -- -- 33
2019-10-02 19:00:00 25.1 13 Noroeste 30 Noroeste 0 -- -- 29
2019-10-02 18:00:00 25.9 13 Noroeste 32 Noroeste 0 -- -- 30
2019-10-02 17:00:00 26 10 Noroeste 28 Noroeste 0 -- -- 32
2019-10-02 16:00:00 25.2 14 Noroeste 28 Noroeste 0 -- -- 33
2019-10-02 15:00:00 24.8 14 Noroeste 27 Oeste 0 -- -- 34
2019-10-02 14:00:00 23 11 Noroeste 36 Norte 0 -- -- 38
2019-10-02 13:00:00 21.6 21 Noroeste 40 Noroeste 0 -- -- 40
2019-10-02 12:00:00 20.4 20 Norte 42 Noroeste 0 -- -- 42
2019-10-02 11:00:00 18.4 23 Norte 43 Norte 0 -- -- 49
2019-10-02 10:00:00 16.6 25 Norte 44 Noroeste 0 -- -- 54
2019-10-02 09:00:00 14.5 8 Noroeste 36 Noroeste 0 -- -- 66
2019-10-02 08:00:00 14.2 11 Noroeste 33 Noroeste 0 -- -- 70
2019-10-02 07:00:00 15 8 Noroeste 41 Norte 0 -- -- 66
2019-10-02 06:00:00 15.4 22 Norte 46 Noroeste 0 -- -- 67
2019-10-02 05:00:00 15.8 12 Noroeste 28 Noroeste 0 -- -- 66
2019-10-02 04:00:00 16 8 Oeste 22 Oeste 0 -- -- 67
2019-10-02 03:00:00 16.9 6 Oeste 24 Sudoeste 0 -- -- 64
2019-10-02 02:00:00 18.1 9 Noroeste 34 Noroeste 0 -- -- 60
2019-10-02 01:00:00 19 19 Noroeste 32 Noroeste 0 -- -- 56
2019-10-02 00:00:00 19.9 20 Noroeste 28 Oeste 0 -- -- 50
2019-10-01 23:00:00 20.5 13 Oeste 25 Noroeste 0 -- -- 48
2019-10-01 22:00:00 22 14 Noroeste 24 Noroeste 0 -- -- 44
2019-10-01 21:00:00 22.8 14 Noroeste 23 Oeste 0 -- -- 41
2019-10-01 20:00:00 23.8 10 Oeste 27 Oeste 0 -- -- 41
2019-10-01 19:00:00 24.9 14 Noroeste 33 Oeste 0 -- -- 40
2019-10-01 18:00:00 25.3 18 Noroeste 35 Noroeste 0 -- -- 40
2019-10-01 17:00:00 25.3 21 Noroeste 36 Noroeste 0 -- -- 41
2019-10-01 16:00:00 25.2 18 Noroeste 33 Noroeste 0 -- -- 46
2019-10-01 15:00:00 24.5 19 Noroeste 36 Oeste 0 -- -- 48
2019-10-01 14:00:00 24.1 15 Noroeste 32 Noroeste 0 -- -- 48
2019-10-01 13:00:00 22.8 17 Noroeste 29 Noroeste 0 -- -- 51
2019-10-01 12:00:00 21.3 10 Noroeste 21 Noroeste 0 -- -- 56
2019-10-01 11:00:00 19.2 9 Noroeste 20 Noroeste 0 -- -- 64
2019-10-01 10:00:00 16.6 8 Sudoeste 12 Sudoeste 0 -- -- 87
2019-10-01 09:00:00 15 7 Sudoeste 10 Sudoeste 0 -- -- 92
2019-10-01 08:00:00 15.2 4 Oeste 9 Sudoeste 0 -- -- 88
2019-10-01 07:00:00 16.4 6 Sudoeste 8 Oeste 0 -- -- 72
2019-10-01 06:00:00 17.2 4 Oeste 11 Sudoeste -- -- -- 70
2019-10-01 05:00:00 18.2 6 Sudoeste 9 Sudoeste 0 -- -- 58
2019-10-01 04:00:00 18 0 Calma 6 Sudoeste 0 -- -- 41
2019-10-01 03:00:00 19.8 6 Sudoeste 9 Sudoeste 0 -- -- 44
2019-10-01 02:00:00 19.2 2 Norte 8 Sudoeste 0 -- -- 37
2019-10-01 01:00:00 21.2 3 Sudoeste 16 Sudoeste 0 -- -- 36
2019-10-01 00:00:00 22.3 8 Oeste 13 Sudoeste 0 -- -- 30
2019-09-30 23:00:00 23.7 6 Oeste 12 Sudoeste 0 -- -- 24
2019-09-30 22:00:00 25.2 7 Oeste 10 Oeste 0 -- -- 20
2019-09-30 21:00:00 25.7 4 Noroeste 13 Sudoeste 0 -- -- 18
2019-09-30 20:00:00 28.5 10 Sudoeste 22 Sudoeste 0 -- -- 17
2019-09-30 19:00:00 30.7 14 Sudoeste 24 Sudoeste 0 -- -- 17
2019-09-30 18:00:00 31.4 8 Sudoeste 24 Sudoeste 0 -- -- 20
2019-09-30 17:00:00 31.5 12 Sudoeste 21 Sudoeste 0 -- -- 20
2019-09-30 16:00:00 31.1 8 Sudoeste 23 Oeste 0 -- -- 20
2019-09-30 15:00:00 30.3 4 Norte 13 Oeste 0 -- -- 22
2019-09-30 14:00:00 28.7 5 Sudeste 13 Nordeste 0 -- -- 26
2019-09-30 13:00:00 26.2 6 Este 15 Este 0 -- -- 30
2019-09-30 12:00:00 23.3 11 Este 15 Nordeste 0 -- -- 32
2019-09-30 11:00:00 20.8 9 Nordeste 14 Nordeste 0 -- -- 40
2019-09-30 10:00:00 17.9 4 Este 10 Este 0 -- -- 46
2019-09-30 09:00:00 15.6 5 Este 8 Este 0 -- -- 51
2019-09-30 08:00:00 14.8 5 Nordeste 6 Nordeste 0 -- -- 46
2019-09-30 07:00:00 15.1 4 Nordeste 8 Este 0 -- -- 47
2019-09-30 06:00:00 17.2 4 Este 12 Este 0 -- -- 42
2019-09-30 05:00:00 21 6 Sudeste 14 Sudeste 0 -- -- 49
2019-09-30 04:00:00 21.6 4 Nordeste 33 Noroeste 0 -- -- 47
2019-09-30 03:00:00 22.8 15 Norte 29 Noroeste 0 -- -- 41
2019-09-30 02:00:00 23.1 17 Norte 30 Noroeste 0 -- -- 39
2019-09-30 01:00:00 23.7 15 Noroeste 26 Noroeste 0 -- -- 36
2019-09-30 00:00:00 23.6 10 Noroeste 16 Noroeste 0 -- -- 28
2019-09-29 23:00:00 23.7 5 Oeste 9 Oeste 0 -- -- 25
2019-09-29 22:00:00 24 6 Oeste 10 Oeste 0 -- -- 25
2019-09-29 21:00:00 25 6 Oeste 8 Oeste 0 -- -- 25
2019-09-29 20:00:00 27.4 4 Oeste 13 Noroeste 0 -- -- 23
2019-09-29 19:00:00 29.5 8 Noroeste 17 Oeste 0 -- -- 17
2019-09-29 18:00:00 30.8 7 Oeste 22 Sudoeste 0 -- -- 18
2019-09-29 17:00:00 30.9 11 Sudoeste 25 Sudoeste 0 -- -- 20
2019-09-29 16:00:00 30.6 7 Sudoeste 23 Sur 0 -- -- 22
2019-09-29 15:00:00 29.6 3 Noroeste 20 Sudoeste 0 -- -- 23
2019-09-29 14:00:00 28.7 9 Sudoeste 22 Sudoeste 0 -- -- 24
2019-09-29 13:00:00 26.4 5 Oeste 9 Sudoeste 0 -- -- 31
2019-09-29 12:00:00 24.3 4 Sudeste 8 Sudeste 0 -- -- 38
2019-09-29 11:00:00 22.2 2 Sudeste 5 Este 0 -- -- 43
2019-09-29 10:00:00 18 0 Calma 5 Oeste 0 -- -- 49
2019-09-29 09:00:00 15 0 Calma 6 Este 0 -- -- 58
2019-09-29 08:00:00 15.4 4 Nordeste 5 Nordeste 0 -- -- 55
2019-09-29 07:00:00 15.9 2 Este 8 Sudeste 0 -- -- 57
2019-09-29 06:00:00 16.2 3 Nordeste 6 Este 0 -- -- 55
2019-09-29 05:00:00 17.3 4 Este 6 Este 0 -- -- 52
2019-09-29 04:00:00 20.4 3 Oeste 6 Oeste 0 -- -- 43
2019-09-29 03:00:00 21 4 Oeste 7 Oeste 0 -- -- 39
2019-09-29 02:00:00 20.1 5 Oeste 6 Noroeste 0 -- -- 43
2019-09-29 01:00:00 22 4 Sudeste 8 Nordeste 0 -- -- 39
2019-09-29 00:00:00 23.4 5 Este 15 Norte 0 -- -- 35
2019-09-28 23:00:00 24.2 6 Norte 14 Noroeste 0 -- -- 33
2019-09-28 22:00:00 24.7 7 Norte 16 Noroeste 0 -- -- 33
2019-09-28 21:00:00 25.1 10 Norte 15 Norte 0 -- -- 35
2019-09-28 20:00:00 27.8 5 Noroeste 14 Sudoeste 0 -- -- 24
2019-09-28 19:00:00 29.9 4 Oeste 17 Sudoeste 0 -- -- 19
2019-09-28 18:00:00 30.8 6 Sudoeste 20 Sudoeste 0 -- -- 21
2019-09-28 17:00:00 30.5 6 Noroeste 17 Sur 0 -- -- 22
2019-09-28 16:00:00 30.6 7 Sur 14 Sudoeste 0 -- -- 22
2019-09-28 15:00:00 28.8 5 Norte 15 Sudoeste 0 -- -- 25
2019-09-28 14:00:00 27 8 Nordeste 18 Este 0 -- -- 30
2019-09-28 13:00:00 25.3 12 Nordeste 23 Este 0 -- -- 36
2019-09-28 12:00:00 22.9 12 Este 19 Este 0 -- -- 41
2019-09-28 11:00:00 20.2 10 Este 19 Este 0 -- -- 52
2019-09-28 10:00:00 17.8 9 Este 22 Nordeste 0 -- -- 60
2019-09-28 09:00:00 14.6 3 Este -- -- 0 -- -- 68
2019-09-28 08:00:00 13.7 3 Norte 6 Este 0 -- -- 70
2019-09-28 07:00:00 14.4 5 Nordeste 8 Este 0 -- -- 74
2019-09-28 06:00:00 18 6 Nordeste 16 Noroeste 0 -- -- 62
2019-09-28 05:00:00 19 4 Sudeste 12 Noroeste 0 -- -- 59
2019-09-28 04:00:00 19.3 9 Noroeste 31 Noroeste 0 -- -- 59
2019-09-28 03:00:00 19.4 19 Noroeste 36 Noroeste 0 -- -- 60
2019-09-28 02:00:00 20.3 20 Noroeste 35 Noroeste 0 -- -- 56
2019-09-28 01:00:00 21.1 17 Noroeste 34 Norte 0 -- -- 52
2019-09-28 00:00:00 22.9 17 Noroeste 33 Noroeste 0 -- -- 42
2019-09-27 23:00:00 23.9 17 Norte 29 Noroeste 0 -- -- 38
2019-09-27 22:00:00 24.4 17 Norte 30 Noroeste 0 -- -- 37
2019-09-27 21:00:00 24.9 13 Noroeste 19 Noroeste 0 -- -- 30
2019-09-27 20:00:00 26.3 10 Noroeste 18 Noroeste 0 -- -- 28
2019-09-27 19:00:00 28.1 10 Noroeste 21 Noroeste 0 -- -- 24
2019-09-27 18:00:00 29.1 13 Noroeste 27 Oeste 0 -- -- 22
2019-09-27 17:00:00 29.6 12 Oeste 24 Sudoeste 0 -- -- 19
2019-09-27 16:00:00 29.2 9 Noroeste 22 Sudoeste 0 -- -- 20
2019-09-27 15:00:00 29 11 Noroeste 24 Noroeste 0 -- -- 21
2019-09-27 14:00:00 28.3 11 Noroeste 20 Norte 0 -- -- 21
2019-09-27 13:00:00 27 13 Norte 23 Noroeste 0 -- -- 24
2019-09-27 12:00:00 24.7 8 Noroeste 20 Norte 0 -- -- 37
2019-09-27 11:00:00 21.4 6 Sur 10 Sudoeste 0 -- -- 50
2019-09-27 10:00:00 17.6 5 Este 8 Este 0 -- -- 63
2019-09-27 09:00:00 14.9 4 Nordeste 9 Este 0 -- -- 72
2019-09-27 08:00:00 14.5 5 Nordeste 10 Este 0 -- -- 73
2019-09-27 07:00:00 15.8 3 Este 10 Sudeste 0 -- -- 67
2019-09-27 06:00:00 16.8 5 Este 9 Sur 0 -- -- 59
2019-09-27 05:00:00 17.6 4 Este 13 Este 0 -- -- 56
2019-09-27 04:00:00 21.8 7 Norte 26 Noroeste 0 -- -- 35
2019-09-27 03:00:00 21.5 14 Noroeste 26 Noroeste 0 -- -- 39
2019-09-27 02:00:00 22.1 10 Noroeste 22 Noroeste 0 -- -- 39
2019-09-27 01:00:00 22.1 5 Oeste 18 Noroeste 0 -- -- 45
2019-09-27 00:00:00 23.1 9 Noroeste 12 Noroeste 0 -- -- 39
2019-09-26 23:00:00 23.3 6 Noroeste 9 Noroeste 0 -- -- 43
2019-09-26 22:00:00 23.3 5 Noroeste 9 Oeste 0 -- -- 42
2019-09-26 21:00:00 23.8 4 Noroeste 11 Sudoeste 0 -- -- 40
2019-09-26 20:00:00 26.7 6 Oeste 17 Oeste 0 -- -- 34
2019-09-26 19:00:00 28.1 9 Oeste 24 Oeste 0 -- -- 34
2019-09-26 18:00:00 29.2 7 Sudoeste 21 Sudoeste 0 -- -- 34
2019-09-26 17:00:00 29.5 5 Sudoeste 17 Sur 0 -- -- 34
2019-09-26 16:00:00 28.6 6 Sur 15 Sur 0 -- -- 35
2019-09-26 15:00:00 27.4 4 Noroeste 14 Sur 0 -- -- 37
2019-09-26 14:00:00 26.3 6 Sur 12 Sur 0 -- -- 40
2019-09-26 13:00:00 24.3 6 Este 17 Este 0 -- -- 44
2019-09-26 12:00:00 22.5 7 Este 13 Este 0 -- -- 49
2019-09-26 11:00:00 20.1 3 Nordeste 9 Sudeste 0 -- -- 58
2019-09-26 10:00:00 16.9 4 Este 7 Este 0 -- -- 68
2019-09-26 09:00:00 14.3 4 Este 6 Nordeste 0 -- -- 78
2019-09-26 08:00:00 13.9 0 Calma 5 Nordeste 0 -- -- 77
2019-09-26 07:00:00 15.4 3 Este 10 Nordeste 0 -- -- 71
2019-09-26 06:00:00 18.2 6 Norte 17 Este 0 -- -- 59
2019-09-26 05:00:00 18.1 2 Sur 10 Oeste 0 -- -- 59
2019-09-26 04:00:00 18.7 3 Sur 9 Oeste 0 -- -- 57
2019-09-26 03:00:00 19.1 5 Sudoeste 13 Sudoeste 0 -- -- 55
2019-09-26 02:00:00 19.8 10 Noroeste 27 Noroeste 0 -- -- 52
2019-09-26 01:00:00 20.7 15 Noroeste 33 Norte 0 -- -- 49
2019-09-26 00:00:00 21.2 17 Norte 31 Norte 0 -- -- 48
2019-09-25 23:00:00 21.3 13 Noroeste 26 Noroeste 0 -- -- 47
2019-09-25 22:00:00 20.9 6 Oeste 12 Noroeste 0 -- -- 47
2019-09-25 21:00:00 22.2 7 Oeste 21 Oeste 0 -- -- 43
2019-09-25 20:00:00 23.8 12 Noroeste 25 Noroeste 0 -- -- 39
2019-09-25 19:00:00 24.9 16 Noroeste 29 Noroeste 0 -- -- 37
2019-09-25 18:00:00 25.5 15 Noroeste 28 Noroeste 0 -- -- 36
2019-09-25 17:00:00 25.5 14 Noroeste 27 Noroeste 0 -- -- 36
2019-09-25 16:00:00 25.1 14 Noroeste 27 Noroeste 0 -- -- 38
2019-09-25 15:00:00 24.6 12 Norte 31 Noroeste 0 -- -- 38
2019-09-25 14:00:00 23.1 11 Noroeste 31 Norte 0 -- -- 42
2019-09-25 13:00:00 21.5 18 Noroeste 36 Norte 0 -- -- 45
2019-09-25 12:00:00 19.7 22 Norte 38 Noroeste 0 -- -- 51
2019-09-25 11:00:00 17.7 19 Norte 45 Noroeste 0 -- -- 61
2019-09-25 10:00:00 16 31 Noroeste 49 Noroeste 0 -- -- 64
2019-09-25 09:00:00 15.3 30 Noroeste 51 Noroeste 0 -- -- 69
2019-09-25 08:00:00 15.2 24 Noroeste 46 Noroeste 0 -- -- 72
2019-09-25 07:00:00 15.3 10 Noroeste 26 Noroeste -- -- -- 73
2019-09-25 06:00:00 -- -- -- -- -- -- -- -- --
2019-09-25 05:00:00 15.7 9 Noroeste 22 Oeste 0 -- -- 74
2019-09-25 04:00:00 16.4 15 Noroeste 27 Noroeste 0 -- -- 71
2019-09-25 03:00:00 16.1 6 Oeste 17 Oeste 0 -- -- 73
2019-09-25 02:00:00 17.2 10 Oeste 20 Oeste 0 -- -- 67
2019-09-25 01:00:00 17.3 6 Oeste 24 Sudoeste 0 -- -- 70
2019-09-25 00:00:00 18.4 7 Oeste 28 Noroeste 0 -- -- 68
2019-09-24 23:00:00 19.5 15 Noroeste 28 Oeste 0 -- -- 64
2019-09-24 22:00:00 20.4 10 Oeste 24 Sudoeste 0 -- -- 77
2019-09-24 21:00:00 21.6 15 Sudoeste 25 Sudoeste 0 -- -- 71
2019-09-24 20:00:00 22.7 14 Sudoeste 25 Sudoeste 0 -- -- 69
2019-09-24 19:00:00 23.7 12 Oeste 24 Oeste 0 -- -- 66
2019-09-24 18:00:00 24 17 Sudoeste 30 Sudoeste 0 -- -- 64
2019-09-24 17:00:00 25.1 10 Oeste 26 Oeste 0 -- -- 61
2019-09-24 16:00:00 24.9 17 Sudoeste 35 Oeste 0 -- -- 61
2019-09-24 15:00:00 24.1 18 Sudoeste 27 Sudoeste 0 -- -- 60
2019-09-24 14:00:00 23.7 14 Sudoeste 26 Sur 0 -- -- 54
2019-09-24 13:00:00 21.8 12 Sudoeste 21 Oeste 0 -- -- 58
2019-09-24 12:00:00 20.1 11 Sudoeste 20 Sudoeste 0 -- -- 64
2019-09-24 11:00:00 18.1 7 Sudoeste 15 Sudoeste 0 -- -- 69
2019-09-24 10:00:00 15.7 5 Sudoeste 9 Sudoeste 0 -- -- 83
2019-09-24 09:00:00 14 4 Sur 8 Oeste 0 -- -- 88
2019-09-24 08:00:00 14 5 Oeste 9 Oeste 0 -- -- 86
2019-09-24 07:00:00 13.5 0 Calma 4 Norte 0 -- -- 77
2019-09-24 06:00:00 14.2 2 Nordeste 3 Norte 0 -- -- 71
2019-09-24 05:00:00 14.5 2 Nordeste 4 Norte 0 -- -- 70
2019-09-24 04:00:00 15.1 4 Norte 5 Norte 0 -- -- 71
2019-09-24 03:00:00 15.9 0 Calma 4 Sudeste 0 -- -- 64
2019-09-24 02:00:00 18 4 Sudoeste 8 Sudoeste 0 -- -- 57
2019-09-24 01:00:00 18.3 5 Oeste 9 Oeste 0 -- -- 53
2019-09-24 00:00:00 18.3 2 Norte 4 Oeste 0 -- -- 51
2019-09-23 23:00:00 20.6 4 Oeste 5 Oeste 0 -- -- 42
2019-09-23 22:00:00 20.2 4 Noroeste 7 Noroeste 0 -- -- 45
2019-09-23 21:00:00 21 5 Noroeste 8 Noroeste 0 -- -- 46
2019-09-23 20:00:00 23.7 6 Oeste 14 Oeste 0 -- -- 37
2019-09-23 19:00:00 25 8 Sudoeste 16 Sudoeste 0 -- -- 36
2019-09-23 18:00:00 25.6 5 Sudoeste 21 Sudoeste 0 -- -- 32
2019-09-23 17:00:00 25 9 Sudoeste 19 Sudoeste 0 -- -- 31
2019-09-23 16:00:00 24.3 7 Oeste 17 Sudoeste 0 -- -- 37
2019-09-23 15:00:00 23.1 5 Noroeste 19 Oeste 0 -- -- 43
2019-09-23 14:00:00 22 6 Sur 17 Sudoeste 0 -- -- 49
2019-09-23 13:00:00 20.1 8 Sudoeste 15 Sur 0 -- -- 55
2019-09-23 12:00:00 19 5 Sudoeste 10 Sudoeste 0 -- -- 64
2019-09-23 11:00:00 16.1 3 Sur 6 Sudoeste 0 -- -- 80
2019-09-23 10:00:00 13.6 0 Calma 4 Nordeste 0 -- -- 92
2019-09-23 09:00:00 12.3 2 Este 4 Este 0 -- -- 95
2019-09-23 08:00:00 11.6 0 Calma 6 Nordeste 0 -- -- 96
2019-09-23 07:00:00 11.8 3 Nordeste 6 Este 0 -- -- 95
2019-09-23 06:00:00 12.4 0 Calma 5 Sudeste 0 -- -- 93
2019-09-23 05:00:00 12.7 3 Nordeste 4 Este 0 -- -- 92
2019-09-23 04:00:00 13.3 0 Calma 6 Oeste 0 -- -- 87
2019-09-23 03:00:00 14 4 Oeste 11 Sudoeste 0 -- -- 86
2019-09-23 02:00:00 14.9 6 Sudoeste 15 Noroeste 0 -- -- 82
2019-09-23 01:00:00 15.6 6 Sudoeste 12 Oeste 0 -- -- 74
2019-09-23 00:00:00 16.8 6 Oeste 14 Sudoeste 0 -- -- 65
2019-09-22 23:00:00 16.7 5 Oeste 8 Oeste 0 -- -- 66
2019-09-22 22:00:00 17 4 Oeste 9 Oeste 0 -- -- 72
2019-09-22 21:00:00 18.3 3 Oeste 14 Oeste 0 -- -- 69
2019-09-22 20:00:00 20 8 Oeste 20 Sudoeste 0 -- -- 59
2019-09-22 19:00:00 21.4 12 Oeste 27 Sudoeste 0 -- -- 51
2019-09-22 18:00:00 21.8 14 Sudoeste 30 Sudoeste 0 -- -- 54
2019-09-22 17:00:00 21.5 17 Sudoeste 31 Sudoeste 0 -- -- 56
2019-09-22 16:00:00 21.6 13 Sudoeste 23 Sudoeste 0 -- -- 59
2019-09-22 15:00:00 20.2 12 Oeste 27 Sudoeste 0 -- -- 64
2019-09-22 14:00:00 19.9 11 Oeste 26 Sudoeste 0 -- -- 69
2019-09-22 13:00:00 17.8 15 Sudoeste 30 Sudoeste 0 -- -- 80
2019-09-22 12:00:00 16.7 13 Sudoeste 21 Sudoeste 0 -- -- 85
2019-09-22 11:00:00 15.8 12 Sudoeste 18 Sudoeste 0 -- -- 89
2019-09-22 10:00:00 14.2 8 Oeste 15 Sudoeste 0 -- -- 94
2019-09-22 09:00:00 12.9 4 Sudoeste 12 Sudoeste 0 -- -- 99
2019-09-22 08:00:00 12.8 7 Sudoeste 13 Oeste 0 -- -- 99
2019-09-22 07:00:00 13.3 5 Sudoeste 17 Sudoeste 0 -- -- 98
2019-09-22 06:00:00 14.1 10 Sudoeste 17 Sudoeste 0 -- -- 98
2019-09-22 05:00:00 15.6 10 Sudoeste 27 Oeste 0 -- -- 96
2019-09-22 04:00:00 17.2 9 Sudoeste 23 Sudoeste 0.4 -- -- 97
2019-09-22 03:00:00 17.6 9 Sudoeste 19 Sudoeste 0.8 -- -- 99
2019-09-22 02:00:00 17.4 13 Sudoeste 26 Sudoeste 0.6 -- -- 98
2019-09-22 01:00:00 17.5 9 Sudoeste 35 Sur 2 -- -- 98
2019-09-22 00:00:00 18.5 18 Sur 31 Sur 0.4 -- -- 91
2019-09-21 23:00:00 17.8 5 Este 15 Este 0.6 -- -- 98
2019-09-21 22:00:00 16.9 8 Nordeste 19 Nordeste 0 -- -- 99
2019-09-21 21:00:00 16.6 11 Nordeste 18 Nordeste 0 -- -- 99
2019-09-21 20:00:00 16.8 7 Nordeste 14 Nordeste 0.4 -- -- 98
2019-09-21 19:00:00 17.4 8 Nordeste 15 Nordeste 0 -- -- 98
2019-09-21 18:00:00 16.6 7 Nordeste 20 Este 2.8 -- -- 99
2019-09-21 17:00:00 16.4 9 Este 19 Este 2 -- -- 99
2019-09-21 16:00:00 16 13 Este 20 Este 0.2 -- -- 98
2019-09-21 15:00:00 15.5 6 Nordeste 16 Este 4 -- -- 96
2019-09-21 14:00:00 15.6 5 Este 27 Sudeste 5.6 -- -- 94
2019-09-21 13:00:00 17.5 8 Sudeste 21 Sur 1.4 -- -- 94
2019-09-21 12:00:00 17.4 6 Este 15 Este 0.8 -- -- 93
2019-09-21 11:00:00 17.2 8 Este 18 Sudeste 0.4 -- -- 93
2019-09-21 10:00:00 16.9 6 Este 10 Este 2 -- -- 92
2019-09-21 09:00:00 17.3 3 Sudeste 8 Sudeste 0.2 -- -- 87
2019-09-21 08:00:00 16.8 2 Nordeste 7 Sudeste 0 -- -- 87
2019-09-21 07:00:00 17.1 4 Este 9 Este 0 -- -- 85
2019-09-21 06:00:00 16.7 3 Nordeste 8 Nordeste 0 -- -- 81
2019-09-21 05:00:00 16.7 4 Nordeste 6 Nordeste 0 -- -- 79
2019-09-21 04:00:00 16.8 4 Este 7 Este 0 -- -- 77
2019-09-21 03:00:00 16.9 0 Calma 7 Oeste 0 -- -- 71
2019-09-21 02:00:00 17.5 3 Sudoeste 5 Sudoeste 0 -- -- 68
2019-09-21 01:00:00 18.2 3 Oeste 10 Sudoeste 0 -- -- 64
2019-09-21 00:00:00 19.5 9 Sur 18 Sur 0 -- -- 61
2019-09-20 23:00:00 20.3 7 Sudoeste 12 Sudoeste 0 -- -- 64
2019-09-20 22:00:00 20.8 8 Sudoeste 15 Sur 0 -- -- 67
2019-09-20 21:00:00 21.7 4 Sudeste 23 Sur 0 -- -- 60
2019-09-20 20:00:00 22.4 15 Sudoeste 32 Sudoeste 0 -- -- 56
2019-09-20 19:00:00 23.7 9 Sudoeste 30 Sudoeste 0 -- -- 52
2019-09-20 18:00:00 22.9 4 Oeste 37 Sudeste 0.2 -- -- 59
2019-09-20 17:00:00 26 12 Sudeste 32 Sur 0 -- -- 42
2019-09-20 16:00:00 26.8 14 Sur 33 Sur 0 -- -- 40
2019-09-20 15:00:00 27 15 Sur 41 Sur 0 -- -- 40
2019-09-20 14:00:00 27.1 13 Sudeste 26 Sur 0 -- -- 38
2019-09-20 13:00:00 26 15 Sur 26 Sudeste 0 -- -- 40
2019-09-20 12:00:00 24.8 7 Sudeste 17 Sudeste 0 -- -- 48
2019-09-20 11:00:00 23 7 Este 15 Este 0 -- -- 53
2019-09-20 10:00:00 19.6 4 Nordeste 9 Este 0 -- -- 64
2019-09-20 09:00:00 17.4 4 Nordeste 8 Nordeste 0 -- -- 70
2019-09-20 08:00:00 16.5 4 Nordeste 10 Este 0 -- -- 71
2019-09-20 07:00:00 16.4 3 Nordeste 6 Nordeste 0 -- -- 70
2019-09-20 06:00:00 17.3 5 Este 8 Este 0 -- -- 68
2019-09-20 05:00:00 18.4 3 Sur 5 Sur 0 -- -- 64
2019-09-20 04:00:00 18.9 0 Calma 5 Sudoeste 0 -- -- 62
2019-09-20 03:00:00 20.3 2 Oeste 10 Sudoeste 0 -- -- 58
2019-09-20 02:00:00 20.8 4 Oeste 10 Sudoeste 0 -- -- 56
2019-09-20 01:00:00 21.9 3 Sur 10 Sudoeste 0 -- -- 51
2019-09-20 00:00:00 23.4 6 Sudoeste 17 Noroeste 0 -- -- 45